sensor_id;sensor_type;location;lat;lon;timestamp;temperature;humidity
18321;DHT22;54904;54.350;18.664;2024-02-14T00:02:26;8.30;99.90
18321;DHT22;54904;54.350;18.664;2024-02-14T00:04:53;8.30;99.90
18321;DHT22;54904;54.350;18.664;2024-02-14T00:07:22;8.30;99.90
18321;DHT22;54904;54.350;18.664;2024-02-14T00:09:52;8.30;99.90
18321;DHT22;54904;54.350;18.664;2024-02-14T00:12:20;8.30;99.90
18321;DHT22;54904;54.350;18.664;2024-02-14T00:14:48;8.30;99.90
18321;DHT22;54904;54.350;18.664;2024-02-14T00:17:15;8.20;99.90
18321;DHT22;54904;54.350;18.664;2024-02-14T00:19:42;8.20;99.90
18321;DHT22;54904;54.350;18.664;2024-02-14T00:22:09;8.20;99.90
18321;DHT22;54904;54.350;18.664;2024-02-14T00:24:38;8.20;99.90
18321;DHT22;54904;54.350;18.664;2024-02-14T00:27:05;8.20;99.90
18321;DHT22;54904;54.350;18.664;2024-02-14T00:29:32;8.20;99.90
18321;DHT22;54904;54.350;18.664;2024-02-14T00:32:00;8.20;99.90
18321;DHT22;54904;54.350;18.664;2024-02-14T00:34:27;8.20;99.90
18321;DHT22;54904;54.350;18.664;2024-02-14T00:36:54;8.20;99.90
18321;DHT22;54904;54.350;18.664;2024-02-14T00:39:21;8.20;99.90
18321;DHT22;54904;54.350;18.664;2024-02-14T00:41:50;8.20;99.90
18321;DHT22;54904;54.350;18.664;2024-02-14T00:44:18;8.20;99.90
18321;DHT22;54904;54.350;18.664;2024-02-14T00:46:45;8.10;99.90
18321;DHT22;54904;54.350;18.664;2024-02-14T00:49:14;8.10;99.90
18321;DHT22;54904;54.350;18.664;2024-02-14T00:51:41;8.10;99.90
18321;DHT22;54904;54.350;18.664;2024-02-14T00:54:08;8.10;99.90
18321;DHT22;54904;54.350;18.664;2024-02-14T00:56:35;8.10;99.90
18321;DHT22;54904;54.350;18.664;2024-02-14T00:59:04;8.10;99.90
18321;DHT22;54904;54.350;18.664;2024-02-14T01:01:32;8.00;99.90
18321;DHT22;54904;54.350;18.664;2024-02-14T01:04:00;8.00;99.90
18321;DHT22;54904;54.350;18.664;2024-02-14T01:06:27;7.90;99.90
18321;DHT22;54904;54.350;18.664;2024-02-14T01:08:54;7.90;99.90
18321;DHT22;54904;54.350;18.664;2024-02-14T01:11:21;7.80;99.90
18321;DHT22;54904;54.350;18.664;2024-02-14T01:13:48;7.80;99.90
18321;DHT22;54904;54.350;18.664;2024-02-14T01:16:17;7.80;99.90
18321;DHT22;54904;54.350;18.664;2024-02-14T01:18:44;7.80;99.90
18321;DHT22;54904;54.350;18.664;2024-02-14T01:21:11;7.80;99.90
18321;DHT22;54904;54.350;18.664;2024-02-14T01:23:38;7.80;99.90
18321;DHT22;54904;54.350;18.664;2024-02-14T01:26:05;7.80;99.90
18321;DHT22;54904;54.350;18.664;2024-02-14T01:28:32;7.80;99.90
18321;DHT22;54904;54.350;18.664;2024-02-14T01:30:59;7.80;99.90
18321;DHT22;54904;54.350;18.664;2024-02-14T01:33:28;7.70;99.90
18321;DHT22;54904;54.350;18.664;2024-02-14T01:35:56;7.70;99.90
18321;DHT22;54904;54.350;18.664;2024-02-14T01:38:24;7.60;99.90
18321;DHT22;54904;54.350;18.664;2024-02-14T01:40:51;7.60;99.90
18321;DHT22;54904;54.350;18.664;2024-02-14T01:43:19;7.60;99.90
18321;DHT22;54904;54.350;18.664;2024-02-14T01:45:47;7.60;99.90
18321;DHT22;54904;54.350;18.664;2024-02-14T01:48:14;7.50;99.90
18321;DHT22;54904;54.350;18.664;2024-02-14T01:50:45;7.50;99.90
18321;DHT22;54904;54.350;18.664;2024-02-14T01:53:13;7.50;99.90
18321;DHT22;54904;54.350;18.664;2024-02-14T01:55:41;7.50;99.90
18321;DHT22;54904;54.350;18.664;2024-02-14T01:58:08;7.50;99.90
18321;DHT22;54904;54.350;18.664;2024-02-14T02:00:35;7.50;99.90
18321;DHT22;54904;54.350;18.664;2024-02-14T02:03:07;7.40;99.90
18321;DHT22;54904;54.350;18.664;2024-02-14T02:05:34;7.40;99.90
18321;DHT22;54904;54.350;18.664;2024-02-14T02:08:03;7.40;99.90
18321;DHT22;54904;54.350;18.664;2024-02-14T02:10:30;7.30;99.90
18321;DHT22;54904;54.350;18.664;2024-02-14T02:12:58;7.30;99.90
18321;DHT22;54904;54.350;18.664;2024-02-14T02:15:26;7.30;99.90
18321;DHT22;54904;54.350;18.664;2024-02-14T02:17:54;7.30;99.90
18321;DHT22;54904;54.350;18.664;2024-02-14T02:20:21;7.30;99.90
18321;DHT22;54904;54.350;18.664;2024-02-14T02:22:50;7.30;99.90
18321;DHT22;54904;54.350;18.664;2024-02-14T02:25:17;7.20;99.90
18321;DHT22;54904;54.350;18.664;2024-02-14T02:27:49;7.20;99.90
18321;DHT22;54904;54.350;18.664;2024-02-14T02:30:16;7.20;99.90
18321;DHT22;54904;54.350;18.664;2024-02-14T02:32:43;7.20;99.90
18321;DHT22;54904;54.350;18.664;2024-02-14T02:35:10;7.20;99.90
18321;DHT22;54904;54.350;18.664;2024-02-14T02:37:37;7.30;99.90
18321;DHT22;54904;54.350;18.664;2024-02-14T02:40:07;7.40;99.90
18321;DHT22;54904;54.350;18.664;2024-02-14T02:42:36;7.40;99.90
18321;DHT22;54904;54.350;18.664;2024-02-14T02:45:04;7.50;99.90
18321;DHT22;54904;54.350;18.664;2024-02-14T02:47:31;7.50;99.90
18321;DHT22;54904;54.350;18.664;2024-02-14T02:49:58;7.50;99.90
18321;DHT22;54904;54.350;18.664;2024-02-14T02:52:27;7.50;99.90
18321;DHT22;54904;54.350;18.664;2024-02-14T02:54:57;7.50;99.90
18321;DHT22;54904;54.350;18.664;2024-02-14T02:57:27;7.50;99.90
18321;DHT22;54904;54.350;18.664;2024-02-14T02:59:55;7.50;99.90
18321;DHT22;54904;54.350;18.664;2024-02-14T03:02:23;7.50;99.90
18321;DHT22;54904;54.350;18.664;2024-02-14T03:04:51;7.50;99.90
18321;DHT22;54904;54.350;18.664;2024-02-14T03:07:18;7.40;99.90
18321;DHT22;54904;54.350;18.664;2024-02-14T03:09:46;7.40;99.90
18321;DHT22;54904;54.350;18.664;2024-02-14T03:12:13;7.50;99.90
18321;DHT22;54904;54.350;18.664;2024-02-14T03:14:43;7.50;99.90
18321;DHT22;54904;54.350;18.664;2024-02-14T03:17:11;7.50;99.90
18321;DHT22;54904;54.350;18.664;2024-02-14T03:19:39;7.50;99.90
18321;DHT22;54904;54.350;18.664;2024-02-14T03:22:07;7.40;99.90
18321;DHT22;54904;54.350;18.664;2024-02-14T03:24:34;7.40;99.90
18321;DHT22;54904;54.350;18.664;2024-02-14T03:27:03;7.40;99.90
18321;DHT22;54904;54.350;18.664;2024-02-14T03:29:31;7.40;99.90
18321;DHT22;54904;54.350;18.664;2024-02-14T03:32:01;7.50;99.90
18321;DHT22;54904;54.350;18.664;2024-02-14T03:34:30;7.40;99.90
18321;DHT22;54904;54.350;18.664;2024-02-14T03:36:59;7.40;99.90
18321;DHT22;54904;54.350;18.664;2024-02-14T03:39:28;7.30;99.90
18321;DHT22;54904;54.350;18.664;2024-02-14T03:41:56;7.30;99.90
18321;DHT22;54904;54.350;18.664;2024-02-14T03:44:23;7.30;99.90
18321;DHT22;54904;54.350;18.664;2024-02-14T03:46:50;7.20;99.90
18321;DHT22;54904;54.350;18.664;2024-02-14T03:49:18;7.20;99.90
18321;DHT22;54904;54.350;18.664;2024-02-14T03:51:46;7.20;99.90
18321;DHT22;54904;54.350;18.664;2024-02-14T03:54:15;7.20;99.90
18321;DHT22;54904;54.350;18.664;2024-02-14T03:56:42;7.20;99.90
18321;DHT22;54904;54.350;18.664;2024-02-14T03:59:09;7.20;99.90
18321;DHT22;54904;54.350;18.664;2024-02-14T04:01:36;7.20;99.90
18321;DHT22;54904;54.350;18.664;2024-02-14T04:04:04;7.30;99.90
18321;DHT22;54904;54.350;18.664;2024-02-14T04:06:33;7.30;99.90
18321;DHT22;54904;54.350;18.664;2024-02-14T04:09:00;7.30;99.90
18321;DHT22;54904;54.350;18.664;2024-02-14T04:11:27;7.30;99.90
18321;DHT22;54904;54.350;18.664;2024-02-14T04:13:54;7.30;99.90
18321;DHT22;54904;54.350;18.664;2024-02-14T04:16:21;7.40;99.90
18321;DHT22;54904;54.350;18.664;2024-02-14T04:18:48;7.40;99.90
18321;DHT22;54904;54.350;18.664;2024-02-14T04:21:16;7.40;99.90
18321;DHT22;54904;54.350;18.664;2024-02-14T04:23:44;7.30;99.90
18321;DHT22;54904;54.350;18.664;2024-02-14T04:26:19;7.30;99.90
18321;DHT22;54904;54.350;18.664;2024-02-14T04:28:46;7.30;99.90
18321;DHT22;54904;54.350;18.664;2024-02-14T04:31:13;7.20;99.90
18321;DHT22;54904;54.350;18.664;2024-02-14T04:33:41;7.20;99.90
18321;DHT22;54904;54.350;18.664;2024-02-14T04:36:09;7.10;99.90
18321;DHT22;54904;54.350;18.664;2024-02-14T04:38:37;7.10;99.90
18321;DHT22;54904;54.350;18.664;2024-02-14T04:41:07;7.00;99.90
18321;DHT22;54904;54.350;18.664;2024-02-14T04:43:35;7.00;99.90
18321;DHT22;54904;54.350;18.664;2024-02-14T04:46:03;7.00;99.90
18321;DHT22;54904;54.350;18.664;2024-02-14T04:48:32;7.00;99.90
18321;DHT22;54904;54.350;18.664;2024-02-14T04:51:00;7.00;99.90
18321;DHT22;54904;54.350;18.664;2024-02-14T04:53:27;6.90;99.90
18321;DHT22;54904;54.350;18.664;2024-02-14T04:55:54;6.90;99.90
18321;DHT22;54904;54.350;18.664;2024-02-14T04:58:23;6.90;99.90
18321;DHT22;54904;54.350;18.664;2024-02-14T05:00:50;6.90;99.90
18321;DHT22;54904;54.350;18.664;2024-02-14T05:03:17;6.80;99.90
18321;DHT22;54904;54.350;18.664;2024-02-14T05:05:44;6.80;99.90
18321;DHT22;54904;54.350;18.664;2024-02-14T05:08:11;6.80;99.90
18321;DHT22;54904;54.350;18.664;2024-02-14T05:10:38;6.80;99.90
18321;DHT22;54904;54.350;18.664;2024-02-14T05:13:06;6.80;99.90
18321;DHT22;54904;54.350;18.664;2024-02-14T05:15:34;6.70;99.90
18321;DHT22;54904;54.350;18.664;2024-02-14T05:18:01;6.70;99.90
18321;DHT22;54904;54.350;18.664;2024-02-14T05:20:28;6.70;99.90
18321;DHT22;54904;54.350;18.664;2024-02-14T05:22:55;6.70;99.90
18321;DHT22;54904;54.350;18.664;2024-02-14T05:25:22;6.70;99.90
18321;DHT22;54904;54.350;18.664;2024-02-14T05:27:49;6.80;99.90
18321;DHT22;54904;54.350;18.664;2024-02-14T05:30:16;6.70;99.90
18321;DHT22;54904;54.350;18.664;2024-02-14T05:32:45;6.70;99.90
18321;DHT22;54904;54.350;18.664;2024-02-14T05:35:12;6.70;99.90
18321;DHT22;54904;54.350;18.664;2024-02-14T05:37:39;6.70;99.90
18321;DHT22;54904;54.350;18.664;2024-02-14T05:40:07;6.70;99.90
18321;DHT22;54904;54.350;18.664;2024-02-14T05:42:35;6.70;99.90
18321;DHT22;54904;54.350;18.664;2024-02-14T05:45:02;6.70;99.90
18321;DHT22;54904;54.350;18.664;2024-02-14T05:47:29;6.70;99.90
18321;DHT22;54904;54.350;18.664;2024-02-14T05:49:59;6.80;99.90
18321;DHT22;54904;54.350;18.664;2024-02-14T05:52:26;6.80;99.90
18321;DHT22;54904;54.350;18.664;2024-02-14T05:54:53;6.80;99.90
18321;DHT22;54904;54.350;18.664;2024-02-14T05:57:20;6.80;99.90
18321;DHT22;54904;54.350;18.664;2024-02-14T05:59:47;6.80;99.90
18321;DHT22;54904;54.350;18.664;2024-02-14T06:02:14;6.80;99.90
18321;DHT22;54904;54.350;18.664;2024-02-14T06:04:42;6.80;99.90
18321;DHT22;54904;54.350;18.664;2024-02-14T06:07:10;6.90;99.90
18321;DHT22;54904;54.350;18.664;2024-02-14T06:09:38;6.90;99.90
18321;DHT22;54904;54.350;18.664;2024-02-14T06:12:06;6.90;99.90
18321;DHT22;54904;54.350;18.664;2024-02-14T06:14:33;6.90;99.90
18321;DHT22;54904;54.350;18.664;2024-02-14T06:17:01;6.90;99.90
18321;DHT22;54904;54.350;18.664;2024-02-14T06:19:28;6.90;99.90
18321;DHT22;54904;54.350;18.664;2024-02-14T06:21:56;6.90;99.90
18321;DHT22;54904;54.350;18.664;2024-02-14T06:24:26;6.90;99.90
18321;DHT22;54904;54.350;18.664;2024-02-14T06:26:53;6.90;99.90
18321;DHT22;54904;54.350;18.664;2024-02-14T06:29:20;6.90;99.90
18321;DHT22;54904;54.350;18.664;2024-02-14T06:31:47;6.90;99.90
18321;DHT22;54904;54.350;18.664;2024-02-14T06:34:15;6.90;99.90
18321;DHT22;54904;54.350;18.664;2024-02-14T06:36:42;6.90;99.90
18321;DHT22;54904;54.350;18.664;2024-02-14T06:39:09;6.90;99.90
18321;DHT22;54904;54.350;18.664;2024-02-14T06:41:38;6.90;99.90
18321;DHT22;54904;54.350;18.664;2024-02-14T06:44:05;6.90;99.90
18321;DHT22;54904;54.350;18.664;2024-02-14T06:46:33;6.90;99.90
18321;DHT22;54904;54.350;18.664;2024-02-14T06:49:01;6.90;99.90
18321;DHT22;54904;54.350;18.664;2024-02-14T06:51:28;6.90;99.90
18321;DHT22;54904;54.350;18.664;2024-02-14T06:53:56;6.90;99.90
18321;DHT22;54904;54.350;18.664;2024-02-14T06:56:23;6.90;99.90
18321;DHT22;54904;54.350;18.664;2024-02-14T06:58:51;6.90;99.90
18321;DHT22;54904;54.350;18.664;2024-02-14T07:01:25;6.90;99.90
18321;DHT22;54904;54.350;18.664;2024-02-14T07:03:52;6.90;99.90
18321;DHT22;54904;54.350;18.664;2024-02-14T07:06:20;6.90;99.90
18321;DHT22;54904;54.350;18.664;2024-02-14T07:08:48;6.80;99.90
18321;DHT22;54904;54.350;18.664;2024-02-14T07:11:16;6.80;99.90
18321;DHT22;54904;54.350;18.664;2024-02-14T07:13:43;6.80;99.90
18321;DHT22;54904;54.350;18.664;2024-02-14T07:16:12;6.80;99.90
18321;DHT22;54904;54.350;18.664;2024-02-14T07:18:39;6.80;99.90
18321;DHT22;54904;54.350;18.664;2024-02-14T07:21:07;6.80;99.90
18321;DHT22;54904;54.350;18.664;2024-02-14T07:23:34;6.90;99.90
18321;DHT22;54904;54.350;18.664;2024-02-14T07:26:01;6.90;99.90
18321;DHT22;54904;54.350;18.664;2024-02-14T07:28:28;7.00;99.90
18321;DHT22;54904;54.350;18.664;2024-02-14T07:30:55;7.00;99.90
18321;DHT22;54904;54.350;18.664;2024-02-14T07:33:24;7.00;99.90
18321;DHT22;54904;54.350;18.664;2024-02-14T07:35:51;7.10;99.90
18321;DHT22;54904;54.350;18.664;2024-02-14T07:38:18;7.20;99.90
18321;DHT22;54904;54.350;18.664;2024-02-14T07:40:45;7.20;99.90
18321;DHT22;54904;54.350;18.664;2024-02-14T07:43:12;7.20;99.90
18321;DHT22;54904;54.350;18.664;2024-02-14T07:45:39;7.30;99.90
18321;DHT22;54904;54.350;18.664;2024-02-14T07:48:06;7.40;99.90
18321;DHT22;54904;54.350;18.664;2024-02-14T07:50:35;7.50;99.90
18321;DHT22;54904;54.350;18.664;2024-02-14T07:53:03;7.50;99.90
18321;DHT22;54904;54.350;18.664;2024-02-14T07:55:32;7.60;99.90
18321;DHT22;54904;54.350;18.664;2024-02-14T07:57:59;7.60;99.90
18321;DHT22;54904;54.350;18.664;2024-02-14T08:00:26;7.60;99.90
18321;DHT22;54904;54.350;18.664;2024-02-14T08:02:53;7.60;99.90
18321;DHT22;54904;54.350;18.664;2024-02-14T08:05:20;7.60;99.90
18321;DHT22;54904;54.350;18.664;2024-02-14T08:07:49;7.80;99.90
18321;DHT22;54904;54.350;18.664;2024-02-14T08:10:16;7.90;99.90
18321;DHT22;54904;54.350;18.664;2024-02-14T08:12:43;8.10;99.90
18321;DHT22;54904;54.350;18.664;2024-02-14T08:15:12;8.40;99.90
18321;DHT22;54904;54.350;18.664;2024-02-14T08:17:39;8.70;99.90
18321;DHT22;54904;54.350;18.664;2024-02-14T08:20:07;9.00;99.90
18321;DHT22;54904;54.350;18.664;2024-02-14T08:22:35;9.20;99.90
18321;DHT22;54904;54.350;18.664;2024-02-14T08:25:05;9.40;99.90
18321;DHT22;54904;54.350;18.664;2024-02-14T08:27:32;9.50;99.90
18321;DHT22;54904;54.350;18.664;2024-02-14T08:30:00;9.50;99.90
18321;DHT22;54904;54.350;18.664;2024-02-14T08:32:27;9.40;99.90
18321;DHT22;54904;54.350;18.664;2024-02-14T08:34:54;9.40;99.90
18321;DHT22;54904;54.350;18.664;2024-02-14T08:37:21;9.50;99.90
18321;DHT22;54904;54.350;18.664;2024-02-14T08:39:50;9.50;99.90
18321;DHT22;54904;54.350;18.664;2024-02-14T08:42:19;9.60;99.90
18321;DHT22;54904;54.350;18.664;2024-02-14T08:44:46;9.90;99.90
18321;DHT22;54904;54.350;18.664;2024-02-14T08:47:13;10.20;99.90
18321;DHT22;54904;54.350;18.664;2024-02-14T08:49:40;10.40;99.90
18321;DHT22;54904;54.350;18.664;2024-02-14T08:52:08;10.50;99.90
18321;DHT22;54904;54.350;18.664;2024-02-14T08:54:36;10.60;99.90
18321;DHT22;54904;54.350;18.664;2024-02-14T08:57:04;10.60;99.90
18321;DHT22;54904;54.350;18.664;2024-02-14T08:59:32;10.60;99.90
18321;DHT22;54904;54.350;18.664;2024-02-14T09:01:59;10.40;99.90
18321;DHT22;54904;54.350;18.664;2024-02-14T09:04:27;10.20;99.90
18321;DHT22;54904;54.350;18.664;2024-02-14T09:06:54;10.10;99.90
18321;DHT22;54904;54.350;18.664;2024-02-14T09:09:21;10.10;99.90
18321;DHT22;54904;54.350;18.664;2024-02-14T09:11:48;10.10;99.90
18321;DHT22;54904;54.350;18.664;2024-02-14T09:14:16;10.10;99.90
18321;DHT22;54904;54.350;18.664;2024-02-14T09:16:45;10.10;99.90
18321;DHT22;54904;54.350;18.664;2024-02-14T09:19:12;10.20;99.90
18321;DHT22;54904;54.350;18.664;2024-02-14T09:21:39;10.20;99.90
18321;DHT22;54904;54.350;18.664;2024-02-14T09:24:06;10.20;99.90
18321;DHT22;54904;54.350;18.664;2024-02-14T09:26:33;10.30;99.90
18321;DHT22;54904;54.350;18.664;2024-02-14T09:29:00;10.40;99.90
18321;DHT22;54904;54.350;18.664;2024-02-14T09:31:27;10.40;99.90
18321;DHT22;54904;54.350;18.664;2024-02-14T09:33:56;10.50;99.90
18321;DHT22;54904;54.350;18.664;2024-02-14T09:36:24;10.50;99.90
18321;DHT22;54904;54.350;18.664;2024-02-14T09:38:51;10.60;99.90
18321;DHT22;54904;54.350;18.664;2024-02-14T09:41:22;10.80;99.90
18321;DHT22;54904;54.350;18.664;2024-02-14T09:43:52;11.00;99.90
18321;DHT22;54904;54.350;18.664;2024-02-14T09:46:23;11.10;99.90
18321;DHT22;54904;54.350;18.664;2024-02-14T09:48:52;11.20;99.90
18321;DHT22;54904;54.350;18.664;2024-02-14T09:51:22;11.30;99.90
18321;DHT22;54904;54.350;18.664;2024-02-14T09:53:51;11.40;99.90
18321;DHT22;54904;54.350;18.664;2024-02-14T09:56:21;11.50;99.90
18321;DHT22;54904;54.350;18.664;2024-02-14T09:58:49;11.80;99.90
18321;DHT22;54904;54.350;18.664;2024-02-14T10:01:22;11.90;99.80
18321;DHT22;54904;54.350;18.664;2024-02-14T10:03:49;12.10;99.40
18321;DHT22;54904;54.350;18.664;2024-02-14T10:06:17;12.20;98.60
18321;DHT22;54904;54.350;18.664;2024-02-14T10:08:47;12.40;97.70
18321;DHT22;54904;54.350;18.664;2024-02-14T10:11:16;12.40;97.60
18321;DHT22;54904;54.350;18.664;2024-02-14T10:13:47;12.60;97.30
18321;DHT22;54904;54.350;18.664;2024-02-14T10:16:16;13.00;97.10
18321;DHT22;54904;54.350;18.664;2024-02-14T10:18:44;13.50;96.30
18321;DHT22;54904;54.350;18.664;2024-02-14T10:21:15;14.10;95.70
18321;DHT22;54904;54.350;18.664;2024-02-14T10:23:45;14.80;94.80
18321;DHT22;54904;54.350;18.664;2024-02-14T10:26:14;15.10;93.60
18321;DHT22;54904;54.350;18.664;2024-02-14T10:28:42;15.30;93.00
18321;DHT22;54904;54.350;18.664;2024-02-14T10:31:10;15.60;92.40
18321;DHT22;54904;54.350;18.664;2024-02-14T10:33:38;15.90;91.60
18321;DHT22;54904;54.350;18.664;2024-02-14T10:36:07;16.30;89.30
18321;DHT22;54904;54.350;18.664;2024-02-14T10:38:35;16.70;87.60
18321;DHT22;54904;54.350;18.664;2024-02-14T10:41:02;16.90;85.00
18321;DHT22;54904;54.350;18.664;2024-02-14T10:43:31;17.00;84.60
18321;DHT22;54904;54.350;18.664;2024-02-14T10:46:05;17.20;83.70
18321;DHT22;54904;54.350;18.664;2024-02-14T10:48:35;17.50;83.40
18321;DHT22;54904;54.350;18.664;2024-02-14T10:51:05;18.00;82.70
18321;DHT22;54904;54.350;18.664;2024-02-14T10:53:37;18.40;81.40
18321;DHT22;54904;54.350;18.664;2024-02-14T10:56:08;18.70;79.00
18321;DHT22;54904;54.350;18.664;2024-02-14T10:58:38;18.80;78.70
18321;DHT22;54904;54.350;18.664;2024-02-14T11:01:06;18.80;76.40
18321;DHT22;54904;54.350;18.664;2024-02-14T11:03:35;18.70;75.90
18321;DHT22;54904;54.350;18.664;2024-02-14T11:06:02;18.80;75.80
18321;DHT22;54904;54.350;18.664;2024-02-14T11:08:30;18.70;74.30
18321;DHT22;54904;54.350;18.664;2024-02-14T11:11:00;18.20;74.10
18321;DHT22;54904;54.350;18.664;2024-02-14T11:13:28;17.90;75.40
18321;DHT22;54904;54.350;18.664;2024-02-14T11:16:00;17.70;75.60
18321;DHT22;54904;54.350;18.664;2024-02-14T11:18:28;17.70;75.60
18321;DHT22;54904;54.350;18.664;2024-02-14T11:20:56;17.50;75.60
18321;DHT22;54904;54.350;18.664;2024-02-14T11:23:24;17.30;76.10
18321;DHT22;54904;54.350;18.664;2024-02-14T11:25:59;17.50;75.40
18321;DHT22;54904;54.350;18.664;2024-02-14T11:28:28;17.50;75.50
18321;DHT22;54904;54.350;18.664;2024-02-14T11:31:00;17.40;75.40
18321;DHT22;54904;54.350;18.664;2024-02-14T11:33:29;17.00;75.10
18321;DHT22;54904;54.350;18.664;2024-02-14T11:35:56;16.80;75.00
18321;DHT22;54904;54.350;18.664;2024-02-14T11:38:25;16.60;74.70
18321;DHT22;54904;54.350;18.664;2024-02-14T11:40:54;16.30;74.50
18321;DHT22;54904;54.350;18.664;2024-02-14T11:43:22;16.00;75.20
18321;DHT22;54904;54.350;18.664;2024-02-14T11:45:50;15.70;75.10
18321;DHT22;54904;54.350;18.664;2024-02-14T11:48:19;15.40;75.40
18321;DHT22;54904;54.350;18.664;2024-02-14T11:50:47;15.10;75.90
18321;DHT22;54904;54.350;18.664;2024-02-14T11:53:15;14.90;76.30
18321;DHT22;54904;54.350;18.664;2024-02-14T11:55:44;14.50;76.70
18321;DHT22;54904;54.350;18.664;2024-02-14T11:58:13;14.40;77.40
18321;DHT22;54904;54.350;18.664;2024-02-14T12:00:42;14.30;77.70
18321;DHT22;54904;54.350;18.664;2024-02-14T12:03:12;14.20;78.30
18321;DHT22;54904;54.350;18.664;2024-02-14T12:05:41;14.10;78.90
18321;DHT22;54904;54.350;18.664;2024-02-14T12:08:10;14.20;79.10
18321;DHT22;54904;54.350;18.664;2024-02-14T12:10:37;14.20;79.50
18321;DHT22;54904;54.350;18.664;2024-02-14T12:13:07;14.20;79.70
18321;DHT22;54904;54.350;18.664;2024-02-14T12:15:38;14.30;80.10
18321;DHT22;54904;54.350;18.664;2024-02-14T12:18:05;14.20;79.90
18321;DHT22;54904;54.350;18.664;2024-02-14T12:20:33;14.20;80.10
18321;DHT22;54904;54.350;18.664;2024-02-14T12:23:02;14.20;79.80
18321;DHT22;54904;54.350;18.664;2024-02-14T12:25:29;14.10;80.10
18321;DHT22;54904;54.350;18.664;2024-02-14T12:27:57;14.10;80.50
18321;DHT22;54904;54.350;18.664;2024-02-14T12:30:42;14.00;80.80
18321;DHT22;54904;54.350;18.664;2024-02-14T12:33:11;13.90;81.00
18321;DHT22;54904;54.350;18.664;2024-02-14T12:35:41;13.80;81.50
18321;DHT22;54904;54.350;18.664;2024-02-14T12:38:12;13.70;81.90
18321;DHT22;54904;54.350;18.664;2024-02-14T12:40:40;13.70;82.40
18321;DHT22;54904;54.350;18.664;2024-02-14T12:43:08;13.60;82.50
18321;DHT22;54904;54.350;18.664;2024-02-14T12:45:36;13.50;83.00
18321;DHT22;54904;54.350;18.664;2024-02-14T12:48:04;13.60;83.70
18321;DHT22;54904;54.350;18.664;2024-02-14T12:50:31;13.60;83.80
18321;DHT22;54904;54.350;18.664;2024-02-14T12:52:58;13.50;83.90
18321;DHT22;54904;54.350;18.664;2024-02-14T12:55:27;13.40;84.10
18321;DHT22;54904;54.350;18.664;2024-02-14T12:57:54;13.30;84.40
18321;DHT22;54904;54.350;18.664;2024-02-14T13:00:22;13.30;84.50
18321;DHT22;54904;54.350;18.664;2024-02-14T13:02:49;13.30;84.40
18321;DHT22;54904;54.350;18.664;2024-02-14T13:05:16;13.20;84.50
18321;DHT22;54904;54.350;18.664;2024-02-14T13:07:44;13.10;84.40
18321;DHT22;54904;54.350;18.664;2024-02-14T13:10:12;13.10;84.30
18321;DHT22;54904;54.350;18.664;2024-02-14T13:12:41;13.10;83.60
18321;DHT22;54904;54.350;18.664;2024-02-14T13:15:09;13.00;83.60
18321;DHT22;54904;54.350;18.664;2024-02-14T13:17:36;12.80;84.30
18321;DHT22;54904;54.350;18.664;2024-02-14T13:20:05;12.80;84.10
18321;DHT22;54904;54.350;18.664;2024-02-14T13:22:32;12.70;84.40
18321;DHT22;54904;54.350;18.664;2024-02-14T13:25:00;12.60;84.50
18321;DHT22;54904;54.350;18.664;2024-02-14T13:27:27;12.50;84.60
18321;DHT22;54904;54.350;18.664;2024-02-14T13:29:56;12.50;84.80
18321;DHT22;54904;54.350;18.664;2024-02-14T13:32:23;12.40;84.80
18321;DHT22;54904;54.350;18.664;2024-02-14T13:34:50;12.40;84.90
18321;DHT22;54904;54.350;18.664;2024-02-14T13:37:18;12.30;85.00
18321;DHT22;54904;54.350;18.664;2024-02-14T13:39:45;12.30;86.30
18321;DHT22;54904;54.350;18.664;2024-02-14T13:42:13;12.30;85.70
18321;DHT22;54904;54.350;18.664;2024-02-14T13:44:40;12.20;85.70
18321;DHT22;54904;54.350;18.664;2024-02-14T13:47:10;12.20;85.90
18321;DHT22;54904;54.350;18.664;2024-02-14T13:49:37;12.20;85.90
18321;DHT22;54904;54.350;18.664;2024-02-14T13:52:04;12.20;86.00
18321;DHT22;54904;54.350;18.664;2024-02-14T13:54:31;12.10;86.10
18321;DHT22;54904;54.350;18.664;2024-02-14T13:56:58;12.10;86.40
18321;DHT22;54904;54.350;18.664;2024-02-14T13:59:29;12.00;86.30
18321;DHT22;54904;54.350;18.664;2024-02-14T14:01:56;12.00;86.40
18321;DHT22;54904;54.350;18.664;2024-02-14T14:04:24;11.90;86.40
18321;DHT22;54904;54.350;18.664;2024-02-14T14:06:52;11.80;86.50
18321;DHT22;54904;54.350;18.664;2024-02-14T14:09:21;11.80;86.80
18321;DHT22;54904;54.350;18.664;2024-02-14T14:11:49;11.70;87.10
18321;DHT22;54904;54.350;18.664;2024-02-14T14:14:17;11.60;87.30
18321;DHT22;54904;54.350;18.664;2024-02-14T14:16:45;11.60;87.60
18321;DHT22;54904;54.350;18.664;2024-02-14T14:19:12;11.50;87.90
18321;DHT22;54904;54.350;18.664;2024-02-14T14:21:40;11.50;88.30
18321;DHT22;54904;54.350;18.664;2024-02-14T14:24:07;11.50;88.50
18321;DHT22;54904;54.350;18.664;2024-02-14T14:26:34;11.50;88.80
18321;DHT22;54904;54.350;18.664;2024-02-14T14:29:02;11.50;89.00
18321;DHT22;54904;54.350;18.664;2024-02-14T14:31:29;11.40;89.20
18321;DHT22;54904;54.350;18.664;2024-02-14T14:33:56;11.40;89.60
18321;DHT22;54904;54.350;18.664;2024-02-14T14:36:24;11.40;89.80
18321;DHT22;54904;54.350;18.664;2024-02-14T14:38:52;11.40;90.00
18321;DHT22;54904;54.350;18.664;2024-02-14T14:41:20;11.30;90.10
18321;DHT22;54904;54.350;18.664;2024-02-14T14:43:47;11.30;90.70
18321;DHT22;54904;54.350;18.664;2024-02-14T14:46:15;11.20;90.80
18321;DHT22;54904;54.350;18.664;2024-02-14T14:48:42;11.20;91.10
18321;DHT22;54904;54.350;18.664;2024-02-14T14:51:09;11.10;91.50
18321;DHT22;54904;54.350;18.664;2024-02-14T14:53:36;11.10;91.70
18321;DHT22;54904;54.350;18.664;2024-02-14T14:56:06;11.10;92.10
18321;DHT22;54904;54.350;18.664;2024-02-14T14:58:33;11.00;92.30
18321;DHT22;54904;54.350;18.664;2024-02-14T15:01:01;11.00;92.60
18321;DHT22;54904;54.350;18.664;2024-02-14T15:03:30;11.00;92.90
18321;DHT22;54904;54.350;18.664;2024-02-14T15:05:58;10.90;93.10
18321;DHT22;54904;54.350;18.664;2024-02-14T15:08:25;10.90;93.40
18321;DHT22;54904;54.350;18.664;2024-02-14T15:10:53;10.80;93.50
18321;DHT22;54904;54.350;18.664;2024-02-14T15:13:22;10.80;93.70
18321;DHT22;54904;54.350;18.664;2024-02-14T15:15:50;10.80;93.80
18321;DHT22;54904;54.350;18.664;2024-02-14T15:18:17;10.80;94.00
18321;DHT22;54904;54.350;18.664;2024-02-14T15:20:44;10.80;94.10
18321;DHT22;54904;54.350;18.664;2024-02-14T15:23:11;10.80;94.20
18321;DHT22;54904;54.350;18.664;2024-02-14T15:25:38;10.80;94.20
18321;DHT22;54904;54.350;18.664;2024-02-14T15:28:07;10.80;94.30
18321;DHT22;54904;54.350;18.664;2024-02-14T15:30:39;10.80;94.40